Time;durP1;ratioP1;P1;durP2;ratioP2;P2;SDS_P1;SDS_P2;PMS_P1;PMS_P2;Temp;Humidity;BMP_temperature;BMP_pressure;BME280_temperature;BME280_humidity;BME280_pressure;Samples;Min_cycle;Max_cycle;Signal;HPM_P1;HPM_P2
2021/06/21 00:01:39;;;;;;;0.95;0.33;;;;;;;18.83;83.45;100360.77;1757351;81;20981;-43
2021/06/21 00:04:05;;;;;;;0.42;0.42;;;;;;;18.83;83.53;100363.53;1749452;82;20990;-43
2021/06/21 00:06:34;;;;;;;0.30;0.30;;;;;;;18.83;83.43;100366.88;1749266;82;21332;-43
2021/06/21 00:09:00;;;;;;;0.40;0.40;;;;;;;18.82;83.39;100370.23;1757568;81;21017;-43
2021/06/21 00:11:28;;;;;;;0.45;0.42;;;;;;;18.81;83.22;100363.64;1757167;81;20978;-44
2021/06/21 00:13:55;;;;;;;0.53;0.40;;;;;;;18.79;83.32;100376.45;1757592;81;21008;-43
2021/06/21 00:16:25;;;;;;;0.40;0.40;;;;;;;18.76;83.65;100370.18;1757300;80;21053;-43
2021/06/21 00:18:53;;;;;;;0.72;0.40;;;;;;;18.68;84.24;100369.64;1757576;81;21557;-43
2021/06/21 00:21:21;;;;;;;0.42;0.42;;;;;;;18.68;84.24;100369.64;1757384;81;21394;-43
2021/06/21 00:23:50;;;;;;;0.42;0.40;;;;;;;18.64;84.58;100364.53;1757415;81;21017;-42
2021/06/21 00:26:18;;;;;;;2.12;0.62;;;;;;;18.58;84.76;100365.89;1757614;80;21013;-42
2021/06/21 00:28:45;;;;;;;0.40;0.40;;;;;;;18.50;85.44;100359.27;1757274;81;21005;-43
2021/06/21 00:31:12;;;;;;;1.50;0.47;;;;;;;18.43;85.97;100352.87;1749338;82;21490;-43
2021/06/21 00:33:38;;;;;;;1.95;0.70;;;;;;;18.32;86.44;100355.77;1757418;81;20969;-43
2021/06/21 00:36:06;;;;;;;1.15;0.65;;;;;;;18.25;86.57;100355.51;1757236;81;21594;-43
2021/06/21 00:38:33;;;;;;;1.17;0.60;;;;;;;18.18;86.79;100360.75;1757364;81;21447;-43
2021/06/21 00:40:59;;;;;;;1.00;0.42;;;;;;;18.14;87.27;100360.58;1757262;81;21005;-42
2021/06/21 00:43:26;;;;;;;0.65;0.40;;;;;;;18.12;87.74;100357.91;1749288;82;21013;-43
2021/06/21 00:45:52;;;;;;;0.55;0.50;;;;;;;18.09;88.17;100355.82;1757274;81;21450;-42
2021/06/21 00:48:19;;;;;;;1.02;0.60;;;;;;;18.07;88.44;100353.38;1757496;81;20989;-43
2021/06/21 00:50:45;;;;;;;0.78;0.57;;;;;;;18.04;88.63;100350.70;1757392;81;21407;-44
2021/06/21 00:53:12;;;;;;;0.85;0.50;;;;;;;18.01;88.84;100359.67;1757312;81;21045;-44
2021/06/21 00:55:39;;;;;;;0.70;0.65;;;;;;;17.99;88.93;100357.80;1755975;81;20985;-42
2021/06/21 00:58:06;;;;;;;1.27;0.50;;;;;;;17.97;89.10;100364.80;1754432;81;21002;-44
2021/06/21 01:00:32;;;;;;;1.15;0.53;;;;;;;17.93;89.32;100370.20;1754461;80;21073;-43
2021/06/21 01:03:03;;;;;;;0.45;0.20;;;;;;;17.89;89.60;100358.75;1727884;81;21073;-44
2021/06/21 01:05:27;;;;;;;1.02;0.50;;;;;;;17.87;89.85;100359.06;1754167;81;21029;-44
2021/06/21 01:07:54;;;;;;;0.40;0.40;;;;;;;17.83;90.12;100356.17;1754719;81;21033;-43
2021/06/21 01:10:24;;;;;;;1.30;0.40;;;;;;;17.78;90.24;100347.22;1754637;81;21001;-43
2021/06/21 01:13:09;;;;;;;0.53;0.33;;;;;;;17.74;90.45;100349.81;1737535;82;20972;-43
2021/06/21 01:15:42;;;;;;;0.60;0.55;;;;;;;17.68;90.89;100347.55;1727814;82;21506;-42
2021/06/21 01:18:17;;;;;;;1.50;0.80;;;;;;;17.59;91.25;100349.78;1737881;82;21064;-43
2021/06/21 01:21:29;;;;;;;0.57;0.45;;;;;;;17.54;91.50;100343.05;1713724;82;20997;-43
2021/06/21 01:24:30;;;;;;;0.68;0.47;;;;;;;17.51;91.53;100349.23;1749013;82;21002;-43
2021/06/21 01:27:43;;;;;;;0.88;0.42;;;;;;;17.49;91.68;100344.61;1744727;81;21003;-46
2021/06/21 01:30:32;;;;;;;0.60;0.40;;;;;;;17.46;91.90;100349.41;1744647;82;20986;-43
2021/06/21 01:32:59;;;;;;;0.50;0.50;;;;;;;17.46;92.20;100352.17;1743630;82;21034;-43
2021/06/21 01:35:38;;;;;;;0.53;0.53;;;;;;;17.46;92.25;100352.17;1731415;82;21360;-43
2021/06/21 01:38:18;;;;;;;0.72;0.72;;;;;;;17.46;92.21;100350.80;1763965;81;21421;-43
2021/06/21 01:40:52;;;;;;;0.65;0.65;;;;;;;17.45;92.21;100350.53;1733866;82;21028;-43
2021/06/21 01:43:19;;;;;;;0.70;0.60;;;;;;;17.43;92.40;100344.52;1731532;82;20993;-43
2021/06/21 01:45:46;;;;;;;0.40;0.40;;;;;;;17.42;92.56;100337.39;1720237;82;20994;-43
2021/06/21 01:48:13;;;;;;;0.60;0.60;;;;;;;17.40;92.66;100348.75;1739183;82;20990;-42
2021/06/21 01:50:41;;;;;;;0.50;0.50;;;;;;;17.38;92.77;100341.94;1738988;82;21010;-43
2021/06/21 01:53:11;;;;;;;1.07;0.40;;;;;;;17.35;92.93;100345.36;1739190;82;20997;-43
2021/06/21 01:55:42;;;;;;;0.37;0.37;;;;;;;17.31;93.07;100340.23;1741363;82;21009;-42
2021/06/21 01:58:09;;;;;;;1.00;0.65;;;;;;;17.29;93.14;100341.16;1746517;82;21573;-43
2021/06/21 02:00:36;;;;;;;0.85;0.80;;;;;;;17.28;93.17;100347.80;1746346;82;21014;-44
2021/06/21 02:03:02;;;;;;;0.90;0.88;;;;;;;17.27;93.23;100342.05;1748535;80;21025;-43
2021/06/21 02:05:28;;;;;;;0.98;0.72;;;;;;;17.27;93.31;100340.67;1748999;81;21068;-43
2021/06/21 02:07:55;;;;;;;1.17;0.70;;;;;;;17.27;93.50;100340.67;1768652;81;20994;-44
2021/06/21 02:10:21;;;;;;;0.42;0.42;;;;;;;17.27;93.61;100339.29;1768475;80;20995;-42
2021/06/21 02:12:49;;;;;;;0.55;0.55;;;;;;;17.29;93.70;100338.40;1749545;81;20998;-44
2021/06/21 02:15:15;;;;;;;0.70;0.42;;;;;;;17.31;93.79;100346.59;1768406;80;21042;-43
2021/06/21 02:17:42;;;;;;;1.05;0.65;;;;;;;17.32;94.01;100346.02;1768459;80;21006;-43
2021/06/21 02:20:09;;;;;;;0.78;0.60;;;;;;;17.33;94.20;100355.92;1749096;81;20994;-45
2021/06/21 02:22:35;;;;;;;2.77;1.40;;;;;;;17.34;94.40;100364.47;1768527;80;21018;-42
2021/06/21 02:25:05;;;;;;;0.50;0.50;;;;;;;17.35;94.50;100361.36;1768423;80;21062;-43
2021/06/21 02:27:32;;;;;;;0.50;0.50;;;;;;;17.39;94.57;100360.15;1768408;80;21018;-43
2021/06/21 02:29:58;;;;;;;0.98;0.85;;;;;;;17.41;94.67;100359.25;1746520;82;21041;-43
2021/06/21 02:32:25;;;;;;;1.30;0.90;;;;;;;17.44;94.76;100361.93;1744997;81;20982;-44
2021/06/21 02:34:52;;;;;;;1.80;1.12;;;;;;;17.45;94.84;100360.78;1768585;80;21056;-43
2021/06/21 02:37:19;;;;;;;0.85;0.85;;;;;;;17.47;94.87;100358.50;1746288;82;21040;-44
2021/06/21 02:39:46;;;;;;;0.72;0.65;;;;;;;17.49;95.21;100357.03;1737780;82;21024;-43
2021/06/21 02:42:12;;;;;;;0.60;0.60;;;;;;;17.50;95.62;100350.36;1768396;81;21018;-44
2021/06/21 02:44:38;;;;;;;0.88;0.70;;;;;;;17.52;95.74;100355.57;1746428;82;20997;-43
2021/06/21 02:47:05;;;;;;;0.62;0.57;;;;;;;17.55;95.66;100343.86;1768828;80;21352;-42
2021/06/21 02:49:34;;;;;;;4.00;0.80;;;;;;;17.63;95.72;100349.37;1768360;80;21041;-43
2021/06/21 02:52:17;;;;;;;1.45;0.80;;;;;;;17.71;95.66;100340.81;1746700;82;21001;-43
2021/06/21 02:55:07;;;;;;;0.75;0.62;;;;;;;17.81;95.52;100349.34;1768071;81;21388;-43
2021/06/21 02:57:51;;;;;;;0.70;0.65;;;;;;;17.90;95.37;100350.11;1767835;81;21022;-43
2021/06/21 03:00:19;;;;;;;0.80;0.80;;;;;;;18.03;95.27;100353.82;1767682;81;21009;-43
2021/06/21 03:02:46;;;;;;;0.88;0.88;;;;;;;18.14;95.01;100347.33;1748451;81;21029;-43
2021/06/21 03:05:15;;;;;;;0.98;0.88;;;;;;;18.23;95.84;100337.05;1767739;81;22016;-43
2021/06/21 03:07:41;;;;;;;0.68;0.68;;;;;;;18.35;96.57;100337.72;1767798;81;20998;-44
2021/06/21 03:10:09;;;;;;;1.05;0.50;;;;;;;18.45;96.55;100336.75;1767616;80;21429;-43
2021/06/21 03:12:35;;;;;;;0.90;0.85;;;;;;;18.59;96.38;100344.78;1716797;82;21006;-43
2021/06/21 03:15:05;;;;;;;0.57;0.50;;;;;;;18.77;96.06;100337.77;1743062;82;21057;-43
2021/06/21 03:17:34;;;;;;;2.90;0.70;;;;;;;18.95;95.34;100344.00;1768523;80;20950;-43
2021/06/21 03:20:00;;;;;;;0.82;0.50;;;;;;;19.13;94.93;100341.30;1768208;80;20998;-43
2021/06/21 03:22:27;;;;;;;0.70;0.70;;;;;;;19.29;94.31;100342.30;1768427;81;21009;-43
2021/06/21 03:24:54;;;;;;;0.60;0.60;;;;;;;19.41;93.69;100342.92;1768306;81;20974;-44
2021/06/21 03:27:31;;;;;;;0.62;0.57;;;;;;;19.55;93.33;100345.37;1736484;82;21433;-43
2021/06/21 03:29:58;;;;;;;4.03;0.80;;;;;;;19.71;92.95;100343.61;1746282;82;20998;-43
2021/06/21 03:32:33;;;;;;;0.78;0.70;;;;;;;19.90;92.39;100339.46;1768541;81;21034;-43
2021/06/21 03:35:01;;;;;;;0.93;0.60;;;;;;;20.07;91.51;100350.33;1746348;82;21053;-44
2021/06/21 03:37:28;;;;;;;0.60;0.50;;;;;;;20.22;90.89;100354.38;1746818;82;20991;-43
2021/06/21 03:39:55;;;;;;;0.82;0.60;;;;;;;20.37;90.14;100350.09;1746512;82;21017;-43
2021/06/21 03:42:22;;;;;;;3.95;0.80;;;;;;;20.53;89.31;100351.02;1746544;82;21383;-43
2021/06/21 03:44:48;;;;;;;3.65;0.60;;;;;;;20.69;88.61;100351.12;1768094;81;21093;-43
2021/06/21 03:47:15;;;;;;;1.37;0.50;;;;;;;20.82;87.87;100349.13;1768748;81;20999;-43
2021/06/21 03:49:46;;;;;;;0.70;0.42;;;;;;;20.97;87.41;100346.22;1746226;82;21045;-44
2021/06/21 03:52:12;;;;;;;0.68;0.60;;;;;;;21.10;86.42;100343.62;1746364;82;21057;-43
2021/06/21 03:54:38;;;;;;;1.32;1.22;;;;;;;21.22;85.63;100344.16;1768346;81;20990;-43
2021/06/21 03:57:07;;;;;;;0.42;0.37;;;;;;;21.35;84.78;100344.31;1772207;80;21448;-43
2021/06/21 03:59:33;;;;;;;1.45;0.50;;;;;;;21.45;83.91;100348.58;1756844;81;21060;-44
2021/06/21 04:02:00;;;;;;;0.93;0.60;;;;;;;21.54;82.77;100346.45;1757068;81;21069;-43
2021/06/21 04:04:27;;;;;;;0.55;0.40;;;;;;;21.62;82.39;100346.06;1756980;81;21058;-43
2021/06/21 04:06:53;;;;;;;0.40;0.40;;;;;;;21.71;81.15;100351.44;1745204;80;21436;-43
2021/06/21 04:09:21;;;;;;;0.50;0.50;;;;;;;21.75;80.60;100353.16;1774095;80;21057;-43
2021/06/21 04:11:48;;;;;;;0.60;0.60;;;;;;;21.78;79.66;100355.21;1774346;80;21068;-43
2021/06/21 04:14:14;;;;;;;0.60;0.40;;;;;;;21.86;79.42;100352.86;1774126;80;20993;-43
2021/06/21 04:16:41;;;;;;;1.77;1.12;;;;;;;21.97;79.50;100363.45;1774206;80;20993;-43
2021/06/21 04:19:08;;;;;;;1.37;0.93;;;;;;;22.08;78.65;100358.38;1729009;81;21013;-43
2021/06/21 04:21:34;;;;;;;0.60;0.60;;;;;;;22.18;78.78;100350.64;1756886;81;20993;-44
2021/06/21 04:24:01;;;;;;;0.70;0.42;;;;;;;22.27;78.70;100359.05;1757004;81;21075;-43
2021/06/21 04:26:27;;;;;;;1.30;0.82;;;;;;;22.41;78.33;100356.41;1774443;80;21384;-44
2021/06/21 04:28:54;;;;;;;1.95;0.85;;;;;;;22.51;77.56;100358.03;1757368;81;21005;-43
2021/06/21 04:31:20;;;;;;;0.93;0.57;;;;;;;22.60;77.43;100357.85;1757320;81;20973;-43
2021/06/21 04:33:47;;;;;;;1.17;0.50;;;;;;;22.69;77.31;100347.30;1757024;81;21418;-43
2021/06/21 04:36:14;;;;;;;0.70;0.47;;;;;;;22.75;75.79;100347.84;1774186;80;21313;-44
2021/06/21 04:38:40;;;;;;;1.42;0.85;;;;;;;22.73;75.88;100355.16;1757056;81;21037;-43
2021/06/21 04:41:07;;;;;;;0.60;0.50;;;;;;;22.75;75.49;100356.99;1757239;81;21430;-44
2021/06/21 04:43:34;;;;;;;0.75;0.50;;;;;;;22.75;75.61;100351.42;1757134;81;20986;-44
2021/06/21 04:46:03;;;;;;;0.60;0.50;;;;;;;22.85;75.88;100358.96;1757222;81;20997;-44
2021/06/21 04:48:32;;;;;;;1.22;0.55;;;;;;;22.95;76.32;100350.85;1757357;81;27536;-42
2021/06/21 04:50:58;;;;;;;0.50;0.50;;;;;;;23.06;75.67;100348.31;1757082;81;21006;-45
2021/06/21 04:53:25;;;;;;;0.53;0.53;;;;;;;23.14;75.50;100348.67;1774170;80;21477;-43
2021/06/21 04:55:51;;;;;;;3.27;0.68;;;;;;;23.23;74.78;100343.48;1755798;81;21940;-43
2021/06/21 04:58:17;;;;;;;0.65;0.60;;;;;;;23.28;74.90;100348.16;1708549;83;20997;-45
2021/06/21 05:00:44;;;;;;;1.10;0.72;;;;;;;23.34;74.98;100348.09;1708303;83;21025;-43
2021/06/21 05:03:10;;;;;;;1.07;0.88;;;;;;;23.45;74.73;100354.46;1708680;84;21447;-43
2021/06/21 05:05:37;;;;;;;1.67;0.50;;;;;;;23.56;74.35;100342.91;1680169;84;21042;-44
2021/06/21 05:08:05;;;;;;;1.15;0.90;;;;;;;23.65;74.07;100336.50;1680238;84;21001;-44
2021/06/21 05:10:32;;;;;;;2.50;0.90;;;;;;;23.72;73.99;100338.03;1682633;84;20990;-43
2021/06/21 05:12:58;;;;;;;0.75;0.75;;;;;;;23.80;73.30;100339.79;1699353;83;21129;-44
2021/06/21 05:15:24;;;;;;;1.00;0.82;;;;;;;23.85;73.35;100348.44;1703395;82;21006;-46
2021/06/21 05:17:51;;;;;;;0.70;0.70;;;;;;;23.90;72.97;100348.73;1707236;84;21053;-42
2021/06/21 05:20:17;;;;;;;1.02;0.82;;;;;;;23.94;72.16;100350.41;1697720;84;21527;-43
2021/06/21 05:22:43;;;;;;;0.50;0.50;;;;;;;23.93;71.67;100347.97;1717065;82;20991;-45
2021/06/21 05:25:13;;;;;;;1.00;0.60;;;;;;;23.92;71.78;100352.75;1726337;83;21497;-44
2021/06/21 05:27:39;;;;;;;0.65;0.62;;;;;;;23.90;72.14;100348.13;1706910;82;21018;-43
2021/06/21 05:30:07;;;;;;;0.60;0.55;;;;;;;23.97;72.94;100345.47;1708586;83;21021;-44
2021/06/21 05:32:35;;;;;;;1.57;0.75;;;;;;;24.06;72.88;100341.61;1705697;84;21093;-44
2021/06/21 05:35:01;;;;;;;0.62;0.62;;;;;;;24.15;72.83;100336.58;1726209;82;21426;-44
2021/06/21 05:37:27;;;;;;;0.60;0.60;;;;;;;24.24;72.86;100338.52;1717142;83;21012;-43
2021/06/21 05:39:54;;;;;;;0.60;0.60;;;;;;;24.38;72.73;100340.15;1717246;83;21000;-45
2021/06/21 05:42:20;;;;;;;1.00;0.60;;;;;;;24.52;71.85;100348.55;1716907;83;21575;-44
2021/06/21 05:44:47;;;;;;;1.00;0.90;;;;;;;24.62;72.10;100349.28;1717061;83;21092;-44
2021/06/21 05:47:14;;;;;;;1.02;0.90;;;;;;;24.70;71.37;100352.37;1717218;83;20993;-43
2021/06/21 05:49:41;;;;;;;0.82;0.80;;;;;;;24.74;69.79;100351.84;1717191;82;21044;-44
2021/06/21 05:52:08;;;;;;;0.70;0.70;;;;;;;24.74;70.45;100358.03;1716706;83;21001;-46
2021/06/21 05:54:34;;;;;;;1.35;0.53;;;;;;;24.75;70.80;100358.23;1717188;83;21060;-45
2021/06/21 05:57:03;;;;;;;0.53;0.40;;;;;;;24.82;70.30;100355.55;1729773;81;21473;-43
2021/06/21 05:59:30;;;;;;;2.92;0.70;;;;;;;24.83;69.97;100355.77;1750471;81;21015;-43
2021/06/21 06:01:57;;;;;;;0.95;0.72;;;;;;;24.83;70.37;100360.77;1750423;81;33725;-43
2021/06/21 06:04:26;;;;;;;0.55;0.55;;;;;;;24.88;70.05;100359.03;1739466;82;20994;-43
2021/06/21 06:06:52;;;;;;;0.75;0.72;;;;;;;24.92;70.56;100356.88;1731468;82;21442;-46
2021/06/21 06:09:19;;;;;;;0.75;0.72;;;;;;;25.00;69.88;100354.38;1733992;81;21076;-43
2021/06/21 06:11:48;;;;;;;1.22;1.12;;;;;;;25.04;69.43;100344.05;1754745;81;21037;-44
2021/06/21 06:14:15;;;;;;;0.93;0.85;;;;;;;25.16;70.20;100350.80;1750877;80;21017;-44
2021/06/21 06:16:43;;;;;;;0.98;0.78;;;;;;;25.31;69.39;100351.80;1737930;81;20986;-44
2021/06/21 06:19:09;;;;;;;1.12;0.88;;;;;;;25.40;69.18;100346.71;1741757;81;21483;-47
2021/06/21 06:21:36;;;;;;;1.25;0.62;;;;;;;25.54;68.88;100350.23;1727440;82;21003;-44
2021/06/21 06:24:03;;;;;;;0.78;0.60;;;;;;;25.74;68.40;100355.03;1730286;82;21071;-43
2021/06/21 06:26:31;;;;;;;1.17;1.00;;;;;;;25.96;68.30;100353.27;1732516;82;21404;-43
2021/06/21 06:28:59;;;;;;;0.85;0.70;;;;;;;26.16;67.37;100353.26;1727245;82;21022;-44
2021/06/21 06:31:26;;;;;;;1.30;0.95;;;;;;;26.32;66.01;100359.17;1727417;82;20984;-43
2021/06/21 06:33:53;;;;;;;0.93;0.70;;;;;;;26.45;66.25;100354.84;1727897;83;21007;-44
2021/06/21 06:36:19;;;;;;;1.35;1.02;;;;;;;26.62;65.66;100359.00;1727977;81;21790;-43
2021/06/21 06:38:46;;;;;;;0.95;0.70;;;;;;;26.76;64.61;100354.08;1727613;81;20980;-45
2021/06/21 06:41:12;;;;;;;0.53;0.53;;;;;;;26.85;63.63;100352.31;1728118;81;21444;-44
2021/06/21 06:43:39;;;;;;;0.75;0.75;;;;;;;26.83;63.12;100355.52;1731862;82;20999;-44
2021/06/21 06:46:05;;;;;;;0.80;0.80;;;;;;;26.81;63.35;100355.11;1730620;82;21038;-44
2021/06/21 06:48:32;;;;;;;0.55;0.55;;;;;;;26.81;62.96;100362.91;1739151;82;20990;-45
2021/06/21 06:50:58;;;;;;;0.62;0.62;;;;;;;26.78;63.84;100359.50;1746484;81;21052;-44
2021/06/21 06:53:29;;;;;;;0.98;0.98;;;;;;;26.84;61.67;100356.33;1750462;81;21008;-43
2021/06/21 06:58:39;;;;;;;1.95;0.90;;;;;;;26.89;61.78;100351.73;1742165;82;20977;-45
2021/06/21 07:01:06;;;;;;;1.37;0.80;;;;;;;26.92;62.01;100348.94;1738096;82;20922;-44
2021/06/21 07:03:32;;;;;;;0.82;0.72;;;;;;;26.91;60.84;100348.75;1703712;82;21042;-44
2021/06/21 07:05:59;;;;;;;1.65;1.00;;;;;;;26.91;62.51;100347.34;1704130;82;21026;-45
2021/06/21 07:08:25;;;;;;;0.82;0.75;;;;;;;27.02;61.89;100350.19;1734242;82;21021;-44
2021/06/21 07:10:51;;;;;;;1.37;0.70;;;;;;;27.16;61.42;100348.05;1699201;82;21777;-43
2021/06/21 07:13:20;;;;;;;0.90;0.90;;;;;;;27.28;62.37;100350.53;1721022;82;21014;-43
2021/06/21 07:15:46;;;;;;;1.60;0.78;;;;;;;27.48;62.39;100350.98;1728723;82;20990;-45
2021/06/21 07:18:13;;;;;;;0.80;0.80;;;;;;;27.69;61.45;100340.98;1749021;80;21041;-44
2021/06/21 07:20:40;;;;;;;1.67;1.50;;;;;;;27.76;60.08;100353.03;1753669;80;20993;-45
2021/06/21 07:23:07;;;;;;;1.62;0.90;;;;;;;27.82;59.14;100354.28;1750710;80;20981;-44
2021/06/21 07:25:33;;;;;;;3.65;1.25;;;;;;;27.90;59.60;100350.08;1734031;80;21484;-44
2021/06/21 07:27:59;;;;;;;0.70;0.70;;;;;;;27.90;58.85;100351.48;1746441;81;20994;-45
2021/06/21 07:30:27;;;;;;;0.60;0.60;;;;;;;27.92;59.99;100350.45;1748495;81;20998;-44
2021/06/21 07:32:53;;;;;;;1.85;0.68;;;;;;;28.06;60.30;100358.28;1736764;81;21030;-44
2021/06/21 07:35:20;;;;;;;1.00;0.80;;;;;;;28.14;56.87;100363.33;1745530;82;20998;-43
2021/06/21 07:37:47;;;;;;;1.82;0.78;;;;;;;27.95;56.27;100357.49;1746409;80;21008;-45
2021/06/21 07:40:13;;;;;;;1.20;0.70;;;;;;;27.81;57.66;100349.02;1747654;81;21030;-44
2021/06/21 07:42:40;;;;;;;1.72;1.20;;;;;;;27.87;57.74;100354.48;1744091;80;21447;-43
2021/06/21 07:45:07;;;;;;;0.78;0.78;;;;;;;27.93;58.69;100351.47;1741621;82;21062;-45
2021/06/21 07:47:34;;;;;;;1.22;1.10;;;;;;;28.07;58.82;100353.49;1743605;81;21006;-44
2021/06/21 07:50:00;;;;;;;1.65;1.02;;;;;;;28.19;58.24;100348.87;1733755;82;21634;-43
2021/06/21 07:52:26;;;;;;;2.15;1.10;;;;;;;28.34;58.97;100348.26;1719382;81;21414;-44
2021/06/21 07:54:52;;;;;;;1.05;0.93;;;;;;;28.46;58.89;100346.47;1771697;80;21009;-45
2021/06/21 07:57:20;;;;;;;1.30;0.88;;;;;;;28.55;58.33;100343.83;1777182;80;21436;-43
2021/06/21 07:59:46;;;;;;;1.47;1.10;;;;;;;28.67;58.26;100342.79;1759807;80;21121;-44
2021/06/21 08:02:12;;;;;;;0.70;0.70;;;;;;;28.86;58.52;100344.95;1737229;81;21036;-43
2021/06/21 08:04:39;;;;;;;1.52;0.75;;;;;;;28.98;57.45;100339.47;1742667;82;21025;-44
2021/06/21 08:07:05;;;;;;;0.95;0.53;;;;;;;29.04;56.60;100340.05;1744846;80;20978;-43
2021/06/21 08:09:32;;;;;;;1.30;0.90;;;;;;;29.05;57.54;100337.42;1759295;80;21845;-44
2021/06/21 08:11:58;;;;;;;0.70;0.70;;;;;;;29.09;55.41;100342.47;1769302;80;21061;-43
2021/06/21 08:14:25;;;;;;;2.65;0.95;;;;;;;29.02;54.92;100339.66;1750909;81;21001;-43
2021/06/21 08:16:51;;;;;;;2.33;1.37;;;;;;;28.94;56.58;100339.49;1753131;81;21065;-45
2021/06/21 08:19:18;;;;;;;1.07;0.88;;;;;;;28.98;57.29;100344.52;1751680;80;21541;-44
2021/06/21 08:21:44;;;;;;;1.00;0.90;;;;;;;29.08;57.97;100343.69;1743448;80;21014;-44
2021/06/21 08:24:12;;;;;;;1.22;0.90;;;;;;;29.26;56.55;100346.41;1741591;82;21037;-43
2021/06/21 08:26:39;;;;;;;2.83;1.15;;;;;;;29.27;55.34;100355.03;1754173;81;21011;-44
2021/06/21 08:29:07;;;;;;;1.57;0.85;;;;;;;29.23;56.27;100354.85;1753606;81;20994;-44
2021/06/21 08:31:34;;;;;;;1.22;1.02;;;;;;;29.29;55.69;100354.63;1744296;80;21017;-45
2021/06/21 08:34:01;;;;;;;1.17;0.93;;;;;;;29.35;55.80;100351.58;1745181;82;21467;-43
2021/06/21 08:36:27;;;;;;;2.02;1.20;;;;;;;29.42;55.88;100356.38;1738909;82;21511;-45
2021/06/21 08:38:53;;;;;;;1.20;1.12;;;;;;;29.49;56.04;100358.53;1738990;82;20994;-44
2021/06/21 08:41:20;;;;;;;1.00;0.90;;;;;;;29.60;55.56;100362.71;1703562;84;20988;-44
2021/06/21 08:43:47;;;;;;;2.15;0.88;;;;;;;29.65;55.21;100360.04;1737379;81;21100;-44
2021/06/21 08:46:16;;;;;;;2.50;1.00;;;;;;;29.65;55.65;100353.00;1737017;82;21468;-44
2021/06/21 08:48:43;;;;;;;1.70;1.00;;;;;;;29.67;55.80;100350.61;1736389;82;20994;-44
2021/06/21 08:51:11;;;;;;;1.35;1.05;;;;;;;29.71;56.03;100352.19;1699172;81;21420;-45
2021/06/21 08:53:38;;;;;;;2.70;1.02;;;;;;;29.67;55.85;100352.02;1733233;81;21014;-44
2021/06/21 08:56:06;;;;;;;1.22;1.00;;;;;;;29.60;56.30;100358.48;1750934;80;21013;-44
2021/06/21 08:58:32;;;;;;;2.67;1.02;;;;;;;29.67;56.98;100352.02;1747845;81;21364;-44
2021/06/21 09:00:59;;;;;;;1.80;0.93;;;;;;;29.81;56.70;100348.31;1755139;81;20993;-45
2021/06/21 09:03:25;;;;;;;1.20;0.85;;;;;;;29.93;56.00;100348.61;1729214;81;20998;-45
2021/06/21 09:05:52;;;;;;;1.12;1.02;;;;;;;29.98;55.12;100346.76;1755726;80;21026;-44
2021/06/21 09:08:18;;;;;;;1.10;1.00;;;;;;;29.98;55.94;100352.39;1750052;80;21488;-44
2021/06/21 09:10:45;;;;;;;2.27;0.88;;;;;;;30.04;56.32;100354.77;1760608;80;20987;-44
2021/06/21 09:13:16;;;;;;;2.67;0.70;;;;;;;30.10;55.10;100351.70;1746701;81;20989;-44
2021/06/21 09:15:47;;;;;;;3.83;1.25;;;;;;;30.18;54.81;100351.22;1740055;81;21345;-44
2021/06/21 09:18:37;;;;;;;1.70;1.17;;;;;;;30.25;54.97;100354.61;1745300;81;20998;-44
2021/06/21 09:21:30;;;;;;;0.72;0.72;;;;;;;30.27;54.41;100345.14;1727309;82;21019;-44
2021/06/21 09:23:58;;;;;;;2.25;0.82;;;;;;;30.28;54.12;100345.94;1737453;81;21041;-45
2021/06/21 09:26:30;;;;;;;2.25;1.32;;;;;;;30.31;53.79;100348.70;1726034;82;21034;-44
2021/06/21 09:29:00;;;;;;;0.88;0.88;;;;;;;30.25;53.07;100348.98;1750274;80;20982;-45
2021/06/21 09:31:27;;;;;;;1.55;1.10;;;;;;;30.15;53.22;100349.84;1747866;81;21626;-44
2021/06/21 09:33:56;;;;;;;0.78;0.60;;;;;;;29.95;52.81;100355.25;1719250;81;21004;-44
2021/06/21 09:36:29;;;;;;;1.00;0.70;;;;;;;29.76;54.12;100361.61;1715707;82;21498;-44
2021/06/21 09:39:27;;;;;;;0.88;0.85;;;;;;;29.72;54.48;100364.25;1775106;80;20974;-45
2021/06/21 09:42:22;;;;;;;3.17;1.10;;;;;;;29.72;54.94;100367.06;1775526;80;21036;-44
2021/06/21 09:44:53;;;;;;;1.87;1.22;;;;;;;29.68;54.28;100367.11;1772100;80;21082;-44
2021/06/21 09:47:38;;;;;;;1.25;1.05;;;;;;;29.63;54.69;100364.69;1715406;82;21006;-44
2021/06/21 09:50:19;;;;;;;1.95;0.82;;;;;;;29.63;54.15;100369.53;1747404;80;21050;-46
2021/06/21 09:53:01;;;;;;;1.02;0.93;;;;;;;29.59;53.95;100367.52;1749654;80;20957;-44
2021/06/21 09:55:45;;;;;;;2.75;1.07;;;;;;;29.53;54.51;100371.98;1761636;80;21002;-44
2021/06/21 09:58:17;;;;;;;1.40;0.90;;;;;;;29.51;55.11;100375.81;1760521;80;21005;-44
2021/06/21 10:00:51;;;;;;;1.20;1.10;;;;;;;29.54;55.19;100379.83;1707522;82;21058;-44
2021/06/21 10:03:21;;;;;;;3.20;0.90;;;;;;;29.50;55.54;100380.44;1734362;81;20970;-45
2021/06/21 10:06:08;;;;;;;1.05;0.80;;;;;;;29.32;55.62;100392.59;1741198;81;21662;-43
2021/06/21 10:08:52;;;;;;;0.70;0.70;;;;;;;29.24;55.39;100382.59;1740833;80;21538;-44
2021/06/21 10:11:40;;;;;;;1.15;1.02;;;;;;;29.30;55.64;100385.77;1712044;81;21056;-44
2021/06/21 10:14:09;;;;;;;1.55;1.30;;;;;;;29.33;56.15;100394.83;1703235;82;21035;-45
2021/06/21 10:16:36;;;;;;;1.50;1.40;;;;;;;29.27;55.43;100384.58;1710385;82;21005;-44
2021/06/21 10:19:03;;;;;;;1.20;1.10;;;;;;;29.26;56.37;100387.81;1713232;83;20958;-44
2021/06/21 10:21:33;;;;;;;1.12;0.88;;;;;;;29.28;56.51;100391.03;1712949;82;21022;-43
2021/06/21 10:23:59;;;;;;;0.90;0.90;;;;;;;29.31;56.68;100385.98;1712952;83;20978;-44
2021/06/21 10:26:27;;;;;;;1.12;1.02;;;;;;;29.30;58.17;100386.59;1751336;81;21054;-45
2021/06/21 10:28:54;;;;;;;1.05;0.95;;;;;;;29.32;57.66;100393.20;1724480;81;21007;-45
2021/06/21 10:31:26;;;;;;;1.00;0.90;;;;;;;29.33;56.87;100393.42;1739876;81;20996;-45
2021/06/21 10:33:57;;;;;;;2.60;0.98;;;;;;;29.30;56.41;100395.62;1758211;81;20972;-44
2021/06/21 10:36:43;;;;;;;3.58;1.00;;;;;;;29.33;56.57;100393.42;1735112;81;21520;-44
2021/06/21 10:39:16;;;;;;;0.98;0.90;;;;;;;29.43;56.28;100394.58;1751052;81;20996;-44
2021/06/21 10:42:10;;;;;;;0.93;0.85;;;;;;;29.58;54.42;100387.66;1758408;80;20986;-44
2021/06/21 10:44:47;;;;;;;0.90;0.80;;;;;;;29.63;54.92;100389.23;1683814;83;21415;-44
2021/06/21 10:47:36;;;;;;;1.42;0.98;;;;;;;29.75;55.10;100398.03;1681397;84;21028;-44
2021/06/21 10:50:10;;;;;;;1.52;1.10;;;;;;;29.93;54.75;100387.25;1706643;82;21009;-46
2021/06/21 10:52:54;;;;;;;0.85;0.85;;;;;;;30.05;54.90;100388.16;1723568;82;21531;-45
2021/06/21 10:55:33;;;;;;;2.65;1.20;;;;;;;30.16;53.84;100389.48;1714825;82;21009;-44
2021/06/21 10:58:07;;;;;;;1.57;1.17;;;;;;;30.18;54.10;100396.91;1727241;81;21546;-45
2021/06/21 11:00:48;;;;;;;1.17;1.00;;;;;;;30.12;53.08;100394.33;1704098;82;21423;-45
2021/06/21 11:03:31;;;;;;;2.72;1.40;;;;;;;30.00;54.37;100391.42;1724604;82;20981;-44
2021/06/21 11:06:10;;;;;;;1.15;1.05;;;;;;;29.95;54.60;100392.66;1731551;82;20972;-46
2021/06/21 11:08:46;;;;;;;3.42;1.20;;;;;;;29.91;53.04;100394.70;1725156;82;21486;-45
2021/06/21 11:11:41;;;;;;;2.27;1.10;;;;;;;29.86;53.01;100403.58;1718864;82;21564;-44
2021/06/21 11:14:12;;;;;;;1.40;1.30;;;;;;;29.86;52.71;100397.16;1726178;81;20987;-43
2021/06/21 11:16:40;;;;;;;1.20;1.00;;;;;;;29.86;53.39;100386.69;1723714;81;21021;-44
2021/06/21 11:19:24;;;;;;;1.30;1.10;;;;;;;29.92;52.94;100394.91;1733104;82;21036;-44
2021/06/21 11:21:57;;;;;;;1.47;1.25;;;;;;;29.95;52.44;100387.03;1694341;83;21076;-44
2021/06/21 11:24:43;;;;;;;2.17;1.20;;;;;;;30.02;52.24;100390.41;1719717;82;21478;-45
2021/06/21 11:27:11;;;;;;;2.58;1.62;;;;;;;30.22;52.74;100392.06;1735832;82;20995;-44
2021/06/21 11:29:48;;;;;;;1.80;1.35;;;;;;;30.48;51.85;100392.66;1701754;83;20974;-44
2021/06/21 11:32:15;;;;;;;2.30;1.05;;;;;;;30.68;51.20;100390.03;1689277;84;20983;-44
2021/06/21 11:34:56;;;;;;;5.55;1.40;;;;;;;30.83;50.46;100386.66;1731880;81;21031;-46
2021/06/21 11:37:43;;;;;;;2.58;1.30;;;;;;;30.97;49.92;100387.73;1727427;83;21001;-45
2021/06/21 11:40:26;;;;;;;1.32;1.10;;;;;;;31.15;50.10;100387.52;1727120;82;21041;-44